Time;durP1;ratioP1;P1;durP2;ratioP2;P2;SDS_P1;SDS_P2;PMS_P1;PMS_P2;Temp;Humidity;BMP_temperature;BMP_pressure;BME280_temperature;BME280_humidity;BME280_pressure;Samples;Min_cycle;Max_cycle;Signal;HPM_P1;HPM_P2
2022/10/18 00:00:12;;;;;;;537.78;306.88;;;;;;;;;;5096568;28;20024;-74
2022/10/18 00:02:38;;;;;;;548.35;307.77;;;;;;;;;;5096072;28;20016;-75
2022/10/18 00:05:05;;;;;;;583.75;309.75;;;;;;;;;;5096392;28;20043;-75
2022/10/18 00:07:31;;;;;;;675.22;303.77;;;;;;;;;;5096284;28;20024;-76
2022/10/18 00:09:57;;;;;;;612.53;304.73;;;;;;;;;;5095976;28;20430;-74
2022/10/18 00:12:23;;;;;;;582.85;290.88;;;;;;;;;;5096485;28;20069;-74
2022/10/18 00:14:50;;;;;;;726.00;318.50;;;;;;;;;;5094922;28;20103;-74
2022/10/18 00:17:16;;;;;;;588.80;307.35;;;;;;;;;;5095719;28;20043;-74
2022/10/18 00:19:43;;;;;;;554.80;316.15;;;;;;;;;;5096063;28;20020;-74
2022/10/18 00:22:09;;;;;;;595.05;292.23;;;;;;;;;;5096033;28;20375;-74
2022/10/18 00:24:35;;;;;;;569.63;318.88;;;;;;;;;;5095593;28;20032;-74
2022/10/18 00:27:01;;;;;;;538.40;296.45;;;;;;;;;;5095929;28;20378;-74
2022/10/18 00:29:27;;;;;;;617.13;302.08;;;;;;;;;;5095839;28;20073;-74
2022/10/18 00:31:53;;;;;;;635.00;298.65;;;;;;;;;;5095388;28;20016;-74
2022/10/18 00:34:19;;;;;;;532.42;310.85;;;;;;;;;;5095818;28;20085;-75
2022/10/18 00:36:45;;;;;;;528.72;307.67;;;;;;;;;;5095388;28;20085;-75
2022/10/18 00:39:14;;;;;;;579.25;295.83;;;;;;;;;;5095638;28;20060;-74
2022/10/18 00:41:41;;;;;;;503.67;308.40;;;;;;;;;;5095475;28;20021;-73
2022/10/18 00:44:27;;;;;;;507.75;307.48;;;;;;;;;;5110449;28;20116;-73
2022/10/18 00:46:54;;;;;;;530.75;356.27;;;;;;;;;;5115818;28;20046;-73
2022/10/18 00:49:30;;;;;;;578.22;384.65;;;;;;;;;;5115831;28;20099;-73
2022/10/18 00:52:02;;;;;;;549.10;343.95;;;;;;;;;;5115348;28;20027;-73
2022/10/18 00:54:29;;;;;;;549.00;369.98;;;;;;;;;;5115914;28;20353;-74
2022/10/18 00:56:55;;;;;;;567.90;372.65;;;;;;;;;;5115692;28;20035;-73
2022/10/18 00:59:22;;;;;;;577.05;369.48;;;;;;;;;;5115290;28;20384;-73
2022/10/18 01:01:48;;;;;;;627.83;414.73;;;;;;;;;;5115570;28;20031;-74
2022/10/18 01:04:15;;;;;;;576.13;350.15;;;;;;;;;;5097130;28;20040;-73
2022/10/18 01:06:49;;;;;;;661.15;418.30;;;;;;;;;;5115165;28;20034;-73
2022/10/18 01:09:30;;;;;;;230.65;172.40;;;;;;;;;;5115749;28;20058;-74
2022/10/18 01:11:56;;;;;;;;;;;;;;;;;;5115972;28;20034;-74
2022/10/18 01:14:28;;;;;;;314.27;208.90;;;;;;;;;;5097124;28;19908;-74
2022/10/18 01:17:08;;;;;;;406.13;235.93;;;;;;;;;;5115285;28;20585;-73
2022/10/18 01:19:43;;;;;;;457.23;253.60;;;;;;;;;;5096648;28;20123;-73
2022/10/18 01:22:23;;;;;;;462.17;246.43;;;;;;;;;;5115294;28;20015;-73
2022/10/18 01:24:58;;;;;;;471.13;262.33;;;;;;;;;;5115324;28;20039;-74
2022/10/18 01:27:45;;;;;;;450.85;255.63;;;;;;;;;;5114899;28;20024;-74
2022/10/18 01:30:14;;;;;;;450.08;247.70;;;;;;;;;;5115040;28;20032;-74
2022/10/18 01:32:44;;;;;;;425.48;240.77;;;;;;;;;;5114989;28;20476;-74
2022/10/18 01:35:13;;;;;;;453.45;251.93;;;;;;;;;;5114554;28;20040;-74
2022/10/18 01:37:39;;;;;;;450.50;255.77;;;;;;;;;;5114876;28;20023;-74
2022/10/18 01:40:06;;;;;;;441.58;251.20;;;;;;;;;;5114448;28;20035;-74
2022/10/18 01:42:32;;;;;;;446.08;251.43;;;;;;;;;;5114683;28;20479;-73
2022/10/18 01:45:00;;;;;;;432.55;246.57;;;;;;;;;;5114798;28;20494;-74
2022/10/18 01:47:26;;;;;;;431.77;248.15;;;;;;;;;;5114638;28;20030;-73
2022/10/18 01:50:03;;;;;;;392.08;230.90;;;;;;;;;;5096470;28;20039;-73
2022/10/18 01:52:30;;;;;;;354.77;218.65;;;;;;;;;;5114232;28;20472;-73
2022/10/18 01:54:57;;;;;;;344.65;213.05;;;;;;;;;;5114243;28;20039;-73
2022/10/18 01:57:36;;;;;;;346.85;213.88;;;;;;;;;;5114548;28;20026;-73
2022/10/18 02:00:21;;;;;;;352.67;219.55;;;;;;;;;;5114842;28;20019;-73
2022/10/18 02:03:19;;;;;;;346.85;217.45;;;;;;;;;;5114051;28;20027;-73
2022/10/18 02:05:54;;;;;;;335.02;212.02;;;;;;;;;;5080522;28;20437;-73
2022/10/18 02:08:26;;;;;;;354.75;219.68;;;;;;;;;;5114240;28;20030;-73
2022/10/18 02:11:04;;;;;;;355.42;219.57;;;;;;;;;;5114460;28;20023;-74
2022/10/18 02:13:41;;;;;;;322.77;204.80;;;;;;;;;;5114307;28;20023;-73
2022/10/18 02:16:10;;;;;;;376.98;223.10;;;;;;;;;;5113989;28;20034;-74
2022/10/18 02:18:38;;;;;;;320.15;208.02;;;;;;;;;;5114116;28;20551;-73
2022/10/18 02:21:06;;;;;;;313.85;201.43;;;;;;;;;;5114184;28;20498;-74
2022/10/18 02:23:33;;;;;;;320.38;207.00;;;;;;;;;;5113853;28;20046;-74
2022/10/18 02:26:00;;;;;;;318.88;203.88;;;;;;;;;;5114113;28;20464;-73
2022/10/18 02:28:26;;;;;;;330.13;211.75;;;;;;;;;;5095858;28;20036;-74
2022/10/18 02:31:15;;;;;;;326.20;209.32;;;;;;;;;;5113713;28;20015;-73
2022/10/18 02:33:47;;;;;;;318.98;205.98;;;;;;;;;;5114334;28;20584;-74
2022/10/18 02:36:17;;;;;;;320.70;207.80;;;;;;;;;;5113517;28;20527;-74
2022/10/18 02:38:45;;;;;;;321.10;205.25;;;;;;;;;;5114095;28;20019;-74
2022/10/18 02:41:11;;;;;;;310.05;203.43;;;;;;;;;;5095645;28;20063;-74
2022/10/18 02:43:37;;;;;;;340.75;214.43;;;;;;;;;;5113261;28;20051;-74
2022/10/18 02:46:03;;;;;;;333.95;211.15;;;;;;;;;;5095664;28;20020;-74
2022/10/18 02:48:29;;;;;;;316.25;205.23;;;;;;;;;;5114251;28;20376;-74
2022/10/18 02:50:56;;;;;;;309.38;202.93;;;;;;;;;;5113719;28;20468;-74
2022/10/18 02:53:22;;;;;;;322.75;207.52;;;;;;;;;;5113764;28;20024;-74
2022/10/18 02:55:48;;;;;;;301.67;197.77;;;;;;;;;;5113768;28;20047;-74
2022/10/18 02:58:14;;;;;;;296.63;195.32;;;;;;;;;;5113795;28;20023;-74
2022/10/18 03:00:40;;;;;;;316.27;205.85;;;;;;;;;;5113711;28;20026;-74
2022/10/18 03:03:06;;;;;;;316.50;205.20;;;;;;;;;;5095493;28;20119;-74
2022/10/18 03:05:32;;;;;;;324.83;207.00;;;;;;;;;;5097441;28;20392;-74
2022/10/18 03:07:58;;;;;;;348.92;214.93;;;;;;;;;;5117911;28;20020;-74
2022/10/18 03:10:24;;;;;;;335.10;208.23;;;;;;;;;;5099552;28;20027;-74
2022/10/18 03:12:50;;;;;;;338.35;212.15;;;;;;;;;;5117384;28;20080;-75
2022/10/18 03:15:16;;;;;;;333.17;210.38;;;;;;;;;;5118133;28;20077;-74
2022/10/18 03:17:43;;;;;;;321.38;205.10;;;;;;;;;;5117713;28;20027;-74
2022/10/18 03:20:09;;;;;;;305.65;198.93;;;;;;;;;;5117241;28;20050;-74
2022/10/18 03:22:35;;;;;;;312.02;203.30;;;;;;;;;;5117556;28;20023;-74
2022/10/18 03:25:01;;;;;;;310.15;202.60;;;;;;;;;;5117586;28;20023;-74
2022/10/18 03:27:27;;;;;;;298.55;198.18;;;;;;;;;;5117080;28;20027;-74
2022/10/18 03:29:53;;;;;;;299.17;200.38;;;;;;;;;;5117420;28;20031;-74
2022/10/18 03:32:19;;;;;;;286.42;193.48;;;;;;;;;;5117352;28;20099;-74
2022/10/18 03:34:46;;;;;;;280.45;192.95;;;;;;;;;;5098785;28;20023;-74
2022/10/18 03:37:12;;;;;;;274.63;189.93;;;;;;;;;;5117278;28;20028;-74
2022/10/18 03:39:38;;;;;;;270.50;187.75;;;;;;;;;;5116850;28;20451;-75
2022/10/18 03:42:04;;;;;;;266.52;185.80;;;;;;;;;;5117534;28;20032;-74
2022/10/18 03:44:30;;;;;;;275.75;190.27;;;;;;;;;;5116917;28;20478;-74
2022/10/18 03:46:56;;;;;;;294.95;198.55;;;;;;;;;;5116876;28;20069;-74
2022/10/18 03:49:22;;;;;;;301.70;195.63;;;;;;;;;;5117119;28;20035;-75
2022/10/18 03:51:48;;;;;;;320.42;206.88;;;;;;;;;;5117260;28;20026;-74
2022/10/18 03:54:14;;;;;;;321.20;205.70;;;;;;;;;;5116687;28;20023;-74
2022/10/18 03:56:40;;;;;;;348.08;215.10;;;;;;;;;;5098673;28;20493;-74
2022/10/18 03:59:07;;;;;;;325.08;207.32;;;;;;;;;;5116891;28;20076;-73
2022/10/18 04:01:33;;;;;;;309.95;199.77;;;;;;;;;;5116479;28;20032;-74
2022/10/18 04:03:59;;;;;;;322.65;205.52;;;;;;;;;;5116861;28;20038;-74
2022/10/18 04:06:25;;;;;;;326.73;205.55;;;;;;;;;;5098457;28;20404;-73
2022/10/18 04:08:51;;;;;;;315.17;203.73;;;;;;;;;;5097960;28;20032;-73
2022/10/18 04:11:17;;;;;;;316.90;202.15;;;;;;;;;;5116704;28;20016;-73
2022/10/18 04:13:43;;;;;;;308.92;200.05;;;;;;;;;;5116701;28;20027;-74
2022/10/18 04:16:09;;;;;;;305.45;199.18;;;;;;;;;;5115657;28;20069;-74
2022/10/18 04:18:35;;;;;;;307.48;199.85;;;;;;;;;;5098174;28;20444;-73
2022/10/18 04:21:02;;;;;;;313.05;203.35;;;;;;;;;;5116467;28;20062;-74
2022/10/18 04:23:28;;;;;;;318.75;205.45;;;;;;;;;;5097657;28;20040;-74
2022/10/18 04:25:54;;;;;;;319.35;206.23;;;;;;;;;;5116333;28;20027;-73
2022/10/18 04:28:20;;;;;;;327.55;204.05;;;;;;;;;;5116435;28;20023;-73
2022/10/18 04:30:50;;;;;;;353.15;215.40;;;;;;;;;;5097655;28;20028;-74
2022/10/18 04:33:16;;;;;;;355.92;213.93;;;;;;;;;;5116121;28;20555;-75
2022/10/18 04:35:42;;;;;;;366.00;219.45;;;;;;;;;;5116034;28;20479;-74
2022/10/18 04:38:09;;;;;;;338.23;210.43;;;;;;;;;;5116104;28;20380;-74
2022/10/18 04:40:35;;;;;;;339.65;212.73;;;;;;;;;;5116047;28;20519;-73
2022/10/18 04:43:01;;;;;;;336.30;209.50;;;;;;;;;;5115524;28;20470;-73
2022/10/18 04:45:27;;;;;;;340.10;210.95;;;;;;;;;;5115971;28;20394;-74
2022/10/18 04:47:53;;;;;;;355.58;215.75;;;;;;;;;;5115916;28;20022;-73
2022/10/18 04:50:19;;;;;;;330.05;207.52;;;;;;;;;;5112023;28;20023;-70
2022/10/18 04:52:45;;;;;;;322.92;207.13;;;;;;;;;;5115348;28;20081;-73
2022/10/18 04:55:11;;;;;;;321.80;206.65;;;;;;;;;;5096414;28;20441;-70
2022/10/18 04:57:38;;;;;;;325.95;207.75;;;;;;;;;;5112122;28;20411;-71
2022/10/18 05:00:04;;;;;;;320.58;202.95;;;;;;;;;;5112524;28;20373;-71
2022/10/18 05:02:30;;;;;;;350.80;213.88;;;;;;;;;;5115228;28;20073;-70
2022/10/18 05:04:56;;;;;;;342.50;212.15;;;;;;;;;;5114336;28;20429;-71
2022/10/18 05:07:22;;;;;;;317.65;206.63;;;;;;;;;;5097075;28;20027;-71
2022/10/18 05:09:48;;;;;;;357.65;216.63;;;;;;;;;;5096890;28;20115;-71
2022/10/18 05:12:14;;;;;;;300.02;197.55;;;;;;;;;;5114941;28;20026;-71
2022/10/18 05:14:41;;;;;;;394.67;229.90;;;;;;;;;;5096698;28;20023;-71
2022/10/18 05:17:07;;;;;;;356.95;215.43;;;;;;;;;;5114719;28;20387;-72
2022/10/18 05:19:33;;;;;;;317.33;203.80;;;;;;;;;;5095904;28;20122;-72
2022/10/18 05:21:59;;;;;;;286.50;190.27;;;;;;;;;;5114616;28;20077;-72
2022/10/18 05:24:25;;;;;;;409.52;232.30;;;;;;;;;;5114393;28;20080;-72
2022/10/18 05:26:51;;;;;;;385.02;227.70;;;;;;;;;;5113554;28;20206;-73
2022/10/18 05:29:17;;;;;;;402.75;234.35;;;;;;;;;;5091993;28;20031;-72
2022/10/18 05:31:43;;;;;;;353.73;216.15;;;;;;;;;;5114089;28;20024;-73
2022/10/18 05:34:09;;;;;;;397.52;231.93;;;;;;;;;;5111375;28;20016;-72
2022/10/18 05:36:36;;;;;;;334.38;209.02;;;;;;;;;;5107735;28;20392;-71
2022/10/18 05:39:04;;;;;;;275.58;193.45;;;;;;;;;;5091055;28;20042;-72
2022/10/18 05:41:30;;;;;;;308.15;202.25;;;;;;;;;;5110313;28;20020;-70
2022/10/18 05:43:56;;;;;;;362.67;221.35;;;;;;;;;;5091612;28;20078;-70
2022/10/18 05:46:23;;;;;;;316.17;205.38;;;;;;;;;;5087796;28;20030;-71
2022/10/18 05:48:50;;;;;;;403.15;234.45;;;;;;;;;;5111813;28;20043;-71
2022/10/18 05:51:16;;;;;;;394.88;228.85;;;;;;;;;;5112159;28;20483;-70
2022/10/18 05:53:42;;;;;;;421.88;244.30;;;;;;;;;;5110530;28;20035;-71
2022/10/18 05:56:10;;;;;;;419.27;240.20;;;;;;;;;;5094170;28;20476;-70
2022/10/18 05:58:37;;;;;;;481.45;264.90;;;;;;;;;;5113299;28;20047;-71
2022/10/18 06:01:04;;;;;;;482.60;265.60;;;;;;;;;;5112922;28;20031;-70
2022/10/18 06:03:30;;;;;;;490.60;266.88;;;;;;;;;;5112958;28;20036;-73
2022/10/18 06:06:04;;;;;;;484.50;264.30;;;;;;;;;;5094173;28;20027;-72
2022/10/18 06:08:30;;;;;;;385.08;226.63;;;;;;;;;;5110570;28;20088;-73
2022/10/18 06:10:56;;;;;;;354.38;223.23;;;;;;;;;;5112843;28;20500;-70
2022/10/18 06:13:23;;;;;;;370.15;223.40;;;;;;;;;;5113307;28;20478;-74
2022/10/18 06:15:49;;;;;;;401.88;238.43;;;;;;;;;;5113090;28;20157;-73
2022/10/18 06:18:15;;;;;;;411.95;243.95;;;;;;;;;;5107034;28;20035;-72
2022/10/18 06:20:41;;;;;;;406.70;240.80;;;;;;;;;;5107039;28;20034;-71
2022/10/18 06:23:08;;;;;;;419.05;245.35;;;;;;;;;;5074112;28;20069;-71
2022/10/18 06:25:34;;;;;;;454.65;257.63;;;;;;;;;;5091607;28;20055;-71
2022/10/18 06:28:00;;;;;;;463.02;260.13;;;;;;;;;;5092294;28;20106;-71
2022/10/18 06:30:26;;;;;;;464.48;257.95;;;;;;;;;;5091108;28;20102;-77
2022/10/18 06:32:52;;;;;;;466.98;263.02;;;;;;;;;;5090599;28;20157;-73
2022/10/18 06:35:18;;;;;;;467.15;262.10;;;;;;;;;;5090944;28;20031;-73
2022/10/18 06:37:44;;;;;;;472.58;262.95;;;;;;;;;;5091374;28;20023;-71
2022/10/18 06:40:10;;;;;;;485.80;268.98;;;;;;;;;;5091571;28;20024;-72
2022/10/18 06:42:37;;;;;;;498.52;276.50;;;;;;;;;;5109493;28;20028;-71
2022/10/18 06:45:03;;;;;;;472.50;262.25;;;;;;;;;;5112186;28;20110;-71
2022/10/18 06:47:29;;;;;;;479.77;255.85;;;;;;;;;;5113210;28;20085;-71
2022/10/18 06:49:55;;;;;;;497.15;276.85;;;;;;;;;;5112472;28;20088;-70
2022/10/18 06:52:24;;;;;;;504.17;275.55;;;;;;;;;;5112554;28;20030;-71
2022/10/18 06:54:50;;;;;;;518.58;273.67;;;;;;;;;;5111628;28;20024;-72
2022/10/18 06:57:16;;;;;;;519.15;280.10;;;;;;;;;;5112330;28;20023;-71
2022/10/18 06:59:42;;;;;;;508.35;281.17;;;;;;;;;;5112440;28;20020;-71
2022/10/18 07:02:09;;;;;;;382.92;239.75;;;;;;;;;;5111152;28;20023;-71
2022/10/18 07:04:35;;;;;;;302.75;206.85;;;;;;;;;;5091897;28;20044;-72
2022/10/18 07:07:01;;;;;;;391.20;245.38;;;;;;;;;;5110221;28;20042;-73
2022/10/18 07:09:28;;;;;;;379.85;242.13;;;;;;;;;;5110196;28;20047;-72
2022/10/18 07:11:54;;;;;;;339.08;225.02;;;;;;;;;;5112090;28;20024;-71
2022/10/18 07:14:20;;;;;;;383.85;241.43;;;;;;;;;;5111114;28;20028;-70
2022/10/18 07:16:46;;;;;;;355.67;231.88;;;;;;;;;;5112168;28;20066;-70
2022/10/18 07:19:13;;;;;;;187.30;165.95;;;;;;;;;;5111942;28;20023;-70
2022/10/18 07:21:40;;;;;;;158.70;144.50;;;;;;;;;;5112801;28;20027;-72
2022/10/18 07:24:06;;;;;;;156.88;142.57;;;;;;;;;;5094183;28;20035;-72
2022/10/18 07:26:33;;;;;;;174.98;157.35;;;;;;;;;;5107406;28;20015;-71
2022/10/18 07:29:07;;;;;;;177.32;159.45;;;;;;;;;;5109177;28;20038;-66
2022/10/18 07:31:33;;;;;;;;;;;;;;;;;;5109394;28;20019;-67
2022/10/18 07:33:59;;;;;;;472.67;273.45;;;;;;;;;;5087431;28;20384;-67
2022/10/18 07:36:25;;;;;;;;;;;;;;;;;;5106662;28;20023;-66
2022/10/18 07:38:51;;;;;;;;;;;;;;;;;;5087911;28;20292;-66
2022/10/18 07:41:17;;;;;;;;;;;;;;;;;;5109593;28;19908;-66
2022/10/18 07:43:44;;;;;;;;;;;;;;;;;;5111125;28;19922;-66
2022/10/18 07:46:10;;;;;;;;;;;;;;;;;;5111023;28;19908;-67
2022/10/18 07:48:36;;;;;;;420.27;249.45;;;;;;;;;;5110434;28;20499;-66
2022/10/18 07:53:55;;;;;;;476.35;340.45;;;;;;;;;;5141985;27;20377;-65
2022/10/18 07:56:21;;;;;;;473.42;313.63;;;;;;;;;;5109735;28;20111;-65
2022/10/18 07:58:47;;;;;;;;;;;;;;;;;;5109856;28;20049;-65
2022/10/18 08:01:14;;;;;;;471.48;251.45;;;;;;;;;;5108829;28;20044;-66
2022/10/18 08:03:40;;;;;;;;;;;;;;;;;;5108197;28;20028;-68
2022/10/18 08:06:08;;;;;;;493.02;307.25;;;;;;;;;;5109468;28;20822;-67
2022/10/18 08:08:34;;;;;;;;;;;;;;;;;;5110239;28;20051;-66
2022/10/18 08:11:00;;;;;;;;;;;;;;;;;;5109011;28;19939;-66
2022/10/18 08:13:26;;;;;;;;;;;;;;;;;;5106526;28;19976;-67
2022/10/18 08:15:52;;;;;;;;;;;;;;;;;;5106511;28;19907;-67
2022/10/18 08:20:44;;;;;;;710.50;549.92;;;;;;;;;;5121043;27;20374;-66
2022/10/18 08:23:11;;;;;;;678.15;496.02;;;;;;;;;;5106026;28;20106;-68
2022/10/18 08:25:37;;;;;;;661.50;519.53;;;;;;;;;;5105482;28;20068;-67
2022/10/18 08:28:03;;;;;;;653.17;454.25;;;;;;;;;;5104973;28;20031;-68
2022/10/18 08:31:59;;;;;;;640.65;422.70;;;;;;;;;;5125163;27;20415;-67
2022/10/18 08:40:14;;;;;;;766.95;510.95;;;;;;;;;;5126250;27;20380;-66
2022/10/18 08:42:43;;;;;;;677.08;370.35;;;;;;;;;;5107429;28;20398;-66
2022/10/18 08:45:11;;;;;;;759.30;336.13;;;;;;;;;;5108560;28;20020;-67
2022/10/18 08:51:00;;;;;;;557.33;305.92;;;;;;;;;;5123797;27;20857;-65
2022/10/18 08:53:33;;;;;;;531.60;293.10;;;;;;;;;;5107124;28;20055;-65
2022/10/18 08:56:13;;;;;;;591.97;303.40;;;;;;;;;;5124070;27;20373;-65
2022/10/18 08:58:40;;;;;;;442.13;276.77;;;;;;;;;;5109470;28;20041;-67
2022/10/18 09:01:10;;;;;;;416.85;267.42;;;;;;;;;;5107933;28;20020;-66
2022/10/18 09:03:54;;;;;;;360.05;245.65;;;;;;;;;;5107242;28;20022;-65
2022/10/18 09:09:20;;;;;;;810.67;545.28;;;;;;;;;;5125321;27;20381;-67
2022/10/18 09:11:49;;;;;;;856.28;525.08;;;;;;;;;;5108337;28;20035;-65
2022/10/18 09:14:15;;;;;;;8.68;4.00;;;;;;;;;;5108855;28;20015;-65
2022/10/18 09:17:06;;;;;;;23.75;22.17;;;;;;;;;;5109516;28;20028;-65
2022/10/18 09:19:44;;;;;;;508.20;455.83;;;;;;;;;;5109288;28;20024;-65
2022/10/18 09:22:15;;;;;;;841.38;545.25;;;;;;;;;;5101733;28;20511;-65
2022/10/18 09:24:54;;;;;;;784.25;497.92;;;;;;;;;;5107465;28;20028;-66
2022/10/18 09:27:22;;;;;;;913.90;568.45;;;;;;;;;;5108631;28;20414;-65
2022/10/18 09:30:45;;;;;;;535.70;331.83;;;;;;;;;;5121281;27;20394;-66
2022/10/18 09:33:50;;;;;;;677.20;326.15;;;;;;;;;;5125223;27;20460;-67
2022/10/18 09:36:29;;;;;;;691.67;318.63;;;;;;;;;;5107574;28;20480;-67
2022/10/18 09:47:20;;;;;;;692.60;459.92;;;;;;;;;;5125077;27;20384;-66
2022/10/18 09:49:57;;;;;;;719.33;499.63;;;;;;;;;;5109918;28;20018;-67
2022/10/18 09:52:40;;;;;;;7.65;3.53;;;;;;;;;;5087860;28;20382;-68
2022/10/18 09:56:48;;;;;;;887.35;534.92;;;;;;;;;;5125533;27;20389;-68
2022/10/18 10:00:33;;;;;;;1090.38;566.63;;;;;;;;;;5125428;27;20369;-67
2022/10/18 10:03:00;;;;;;;1149.25;580.15;;;;;;;;;;5109960;28;20020;-66
2022/10/18 10:05:26;;;;;;;1061.00;589.45;;;;;;;;;;5110039;28;20103;-65
2022/10/18 10:10:25;;;;;;;1032.07;662.88;;;;;;;;;;5125317;27;20374;-66
2022/10/18 10:13:14;;;;;;;1073.85;622.50;;;;;;;;;;5108444;28;20039;-67
2022/10/18 10:16:08;;;;;;;1077.85;646.97;;;;;;;;;;5125913;27;20388;-65
2022/10/18 10:18:36;;;;;;;1122.85;597.83;;;;;;;;;;5109479;28;20117;-66
2022/10/18 10:21:07;;;;;;;1146.13;582.85;;;;;;;;;;5108599;28;20535;-66
2022/10/18 10:23:38;;;;;;;1144.07;613.72;;;;;;;;;;5110472;28;20055;-66
2022/10/18 10:26:06;;;;;;;1088.55;600.33;;;;;;;;;;5110109;28;20384;-66
2022/10/18 10:28:34;;;;;;;1099.43;607.90;;;;;;;;;;5109798;28;20069;-66
2022/10/18 10:33:46;;;;;;;1119.90;617.22;;;;;;;;;;5125473;27;20374;-67
2022/10/18 10:36:19;;;;;;;1062.50;641.70;;;;;;;;;;5108948;28;20019;-66
2022/10/18 10:39:11;;;;;;;659.28;426.60;;;;;;;;;;5123852;27;20369;-66
2022/10/18 10:43:14;;;;;;;648.28;398.45;;;;;;;;;;5086125;28;20371;-66
2022/10/18 10:45:54;;;;;;;641.95;395.02;;;;;;;;;;5087760;28;20024;-66
2022/10/18 10:48:32;;;;;;;656.78;383.27;;;;;;;;;;5124212;27;20854;-66
2022/10/18 10:51:06;;;;;;;626.20;352.25;;;;;;;;;;5107023;28;20105;-66
2022/10/18 10:53:36;;;;;;;637.53;323.98;;;;;;;;;;5096744;28;20080;-66
2022/10/18 10:56:03;;;;;;;733.58;315.48;;;;;;;;;;5104395;28;20415;-65
2022/10/18 10:58:33;;;;;;;721.58;314.85;;;;;;;;;;5106754;28;20020;-66
2022/10/18 11:01:16;;;;;;;663.75;342.95;;;;;;;;;;5108186;28;20016;-66
2022/10/18 11:05:22;;;;;;;1065.60;786.40;;;;;;;;;;5121080;27;20449;-66
2022/10/18 11:07:50;;;;;;;1061.22;625.20;;;;;;;;;;5105469;28;20035;-65
2022/10/18 11:10:21;;;;;;;1116.25;584.25;;;;;;;;;;5105969;28;20074;-66
2022/10/18 11:14:40;;;;;;;1059.38;578.03;;;;;;;;;;5120391;27;20373;-66
2022/10/18 11:17:12;;;;;;;1117.72;595.90;;;;;;;;;;5105699;28;20420;-68
2022/10/18 11:19:49;;;;;;;1105.65;576.90;;;;;;;;;;5106309;28;20535;-65
2022/10/18 11:22:18;;;;;;;1107.38;603.97;;;;;;;;;;5106059;28;20031;-66
2022/10/18 11:24:44;;;;;;;1127.60;601.70;;;;;;;;;;5106684;28;20108;-66
2022/10/18 11:27:14;;;;;;;1180.97;520.00;;;;;;;;;;5109801;28;20055;-66
2022/10/18 11:29:43;;;;;;;1137.35;571.28;;;;;;;;;;5108239;28;20712;-67
2022/10/18 11:32:24;;;;;;;1150.57;551.42;;;;;;;;;;5108004;28;20357;-66
2022/10/18 11:34:56;;;;;;;1130.57;576.97;;;;;;;;;;5107965;28;20074;-67
2022/10/18 11:37:42;;;;;;;1208.68;518.30;;;;;;;;;;5109005;28;20032;-67
2022/10/18 11:40:14;;;;;;;1142.95;569.63;;;;;;;;;;5109274;28;20027;-68
2022/10/18 11:42:50;;;;;;;1194.50;540.53;;;;;;;;;;5109999;28;20376;-68
2022/10/18 11:45:35;;;;;;;1141.40;526.38;;;;;;;;;;5107031;28;20385;-67
2022/10/18 11:48:01;;;;;;;1183.32;561.80;;;;;;;;;;5108538;28;20027;-69
2022/10/18 11:50:45;;;;;;;1213.22;523.22;;;;;;;;;;5109663;28;20085;-66
2022/10/18 11:54:28;;;;;;;1191.20;525.03;;;;;;;;;;5143356;27;20385;-65
2022/10/18 11:56:57;;;;;;;1179.10;524.55;;;;;;;;;;5090028;28;20077;-65
2022/10/18 11:59:42;;;;;;;1175.57;549.03;;;;;;;;;;5088847;28;20028;-65
2022/10/18 12:02:30;;;;;;;1181.95;551.53;;;;;;;;;;5088368;28;20491;-65
2022/10/18 12:04:59;;;;;;;1157.97;587.92;;;;;;;;;;5088290;28;20491;-66
2022/10/18 12:07:28;;;;;;;1168.90;575.92;;;;;;;;;;5086600;28;20078;-66
2022/10/18 12:09:54;;;;;;;1147.05;614.05;;;;;;;;;;5085262;28;20032;-67
2022/10/18 12:12:36;;;;;;;1134.18;662.45;;;;;;;;;;5087204;28;20020;-65
2022/10/18 12:15:12;;;;;;;1154.63;597.07;;;;;;;;;;5067398;28;20029;-65
2022/10/18 12:17:45;;;;;;;1156.00;601.53;;;;;;;;;;5076697;28;20146;-64
2022/10/18 12:20:16;;;;;;;1143.60;621.42;;;;;;;;;;5089462;28;20028;-66
2022/10/18 12:23:00;;;;;;;1157.57;593.45;;;;;;;;;;5089004;28;20028;-65
2022/10/18 12:25:29;;;;;;;1140.45;633.95;;;;;;;;;;5089486;28;20030;-65
2022/10/18 12:28:04;;;;;;;1134.38;629.25;;;;;;;;;;5089166;28;20024;-65
2022/10/18 12:30:49;;;;;;;1138.65;612.38;;;;;;;;;;5089708;28;20428;-65
2022/10/18 12:33:20;;;;;;;1135.53;626.20;;;;;;;;;;5088300;28;20514;-65
2022/10/18 12:35:56;;;;;;;1161.07;568.15;;;;;;;;;;5088950;28;20047;-66
2022/10/18 12:38:26;;;;;;;1150.22;595.95;;;;;;;;;;5088266;28;20521;-66
2022/10/18 12:40:53;;;;;;;1130.78;652.35;;;;;;;;;;5089853;28;20410;-67
2022/10/18 12:43:32;;;;;;;1143.13;630.72;;;;;;;;;;5089302;28;20085;-67
2022/10/18 12:46:01;;;;;;;1134.75;641.83;;;;;;;;;;5089671;28;20087;-66
2022/10/18 12:48:35;;;;;;;1126.63;663.60;;;;;;;;;;5089237;28;20056;-67
2022/10/18 12:51:07;;;;;;;1128.13;689.42;;;;;;;;;;5089723;28;20485;-67
2022/10/18 12:53:33;;;;;;;1121.47;713.60;;;;;;;;;;5089134;28;20059;-66
2022/10/18 12:56:18;;;;;;;1127.25;673.05;;;;;;;;;;5087290;28;20025;-67
2022/10/18 12:58:44;;;;;;;1114.30;699.53;;;;;;;;;;5066619;28;20037;-68
2022/10/18 13:01:10;;;;;;;1108.93;733.55;;;;;;;;;;5103252;27;20021;-66
2022/10/18 13:03:38;;;;;;;1108.82;732.45;;;;;;;;;;5086748;28;20043;-68
2022/10/18 13:06:04;;;;;;;1109.90;726.92;;;;;;;;;;5072209;28;20029;-66
2022/10/18 13:08:32;;;;;;;1117.55;724.53;;;;;;;;;;5071842;28;20377;-67
2022/10/18 13:11:08;;;;;;;1111.50;701.17;;;;;;;;;;5071679;28;20021;-67
2022/10/18 13:13:34;;;;;;;1102.90;761.22;;;;;;;;;;5072752;28;20041;-67
2022/10/18 13:16:03;;;;;;;1106.78;724.83;;;;;;;;;;5073318;28;20373;-66
2022/10/18 13:18:32;;;;;;;1104.07;767.80;;;;;;;;;;5073058;28;20044;-66
2022/10/18 13:21:11;;;;;;;1094.70;763.33;;;;;;;;;;5071907;28;20024;-66
2022/10/18 13:23:37;;;;;;;1096.35;767.40;;;;;;;;;;5071365;28;20435;-66
2022/10/18 13:26:27;;;;;;;1114.03;706.53;;;;;;;;;;5071705;28;20544;-66
2022/10/18 13:28:56;;;;;;;1104.07;742.97;;;;;;;;;;5070615;28;20059;-67
2022/10/18 13:31:25;;;;;;;1121.75;686.95;;;;;;;;;;5073225;28;20428;-67
2022/10/18 13:33:51;;;;;;;1097.38;747.30;;;;;;;;;;5073387;28;20037;-67
2022/10/18 13:36:17;;;;;;;1109.60;733.30;;;;;;;;;;5073358;28;20024;-67
2022/10/18 13:38:46;;;;;;;1108.53;724.92;;;;;;;;;;5073161;28;20157;-67
2022/10/18 13:41:22;;;;;;;1109.43;718.60;;;;;;;;;;5075436;28;20021;-66
2022/10/18 13:44:07;;;;;;;1114.53;702.05;;;;;;;;;;5075653;28;20021;-66
2022/10/18 13:46:33;;;;;;;1107.32;743.08;;;;;;;;;;5073670;28;20077;-66
2022/10/18 13:48:59;;;;;;;1111.63;747.45;;;;;;;;;;5075286;28;20081;-67
2022/10/18 13:51:25;;;;;;;1111.15;733.92;;;;;;;;;;5075016;28;20032;-68
2022/10/18 13:53:51;;;;;;;1109.53;760.25;;;;;;;;;;5073683;28;20524;-68
2022/10/18 13:56:17;;;;;;;1118.57;712.63;;;;;;;;;;5075089;28;20025;-66
2022/10/18 13:59:01;;;;;;;1133.18;726.40;;;;;;;;;;5073621;28;20028;-67
2022/10/18 14:01:35;;;;;;;1121.95;710.10;;;;;;;;;;5073094;28;20036;-66
2022/10/18 14:04:01;;;;;;;1115.38;675.25;;;;;;;;;;5072725;28;20382;-66
2022/10/18 14:06:40;;;;;;;1095.95;781.25;;;;;;;;;;5072465;28;20090;-67
2022/10/18 14:09:12;;;;;;;1093.95;801.45;;;;;;;;;;5072855;28;20050;-66
2022/10/18 14:11:47;;;;;;;1095.88;739.78;;;;;;;;;;5072699;28;20024;-66
2022/10/18 14:14:25;;;;;;;1097.32;769.50;;;;;;;;;;5072791;28;20039;-66
2022/10/18 14:16:58;;;;;;;1092.43;747.28;;;;;;;;;;5074050;28;20488;-66
2022/10/18 14:19:36;;;;;;;1092.82;761.65;;;;;;;;;;5073857;28;20131;-66
2022/10/18 14:22:07;;;;;;;1076.25;806.92;;;;;;;;;;5072544;28;20025;-66
2022/10/18 14:24:33;;;;;;;1085.30;783.15;;;;;;;;;;5072610;28;20047;-65
2022/10/18 14:27:11;;;;;;;1073.45;830.40;;;;;;;;;;5072119;28;20031;-66
2022/10/18 14:29:38;;;;;;;1082.85;779.05;;;;;;;;;;5072348;28;20024;-66
2022/10/18 14:32:07;;;;;;;1082.72;796.60;;;;;;;;;;5072131;28;20023;-66
2022/10/18 14:34:34;;;;;;;1076.28;800.40;;;;;;;;;;5072311;28;20119;-66
2022/10/18 14:37:00;;;;;;;1072.95;829.10;;;;;;;;;;5074278;28;20025;-66
2022/10/18 14:39:31;;;;;;;1068.78;850.00;;;;;;;;;;5072972;28;20484;-66
2022/10/18 14:41:57;;;;;;;1087.78;840.65;;;;;;;;;;5074090;28;20107;-66
2022/10/18 14:44:28;;;;;;;1092.32;767.55;;;;;;;;;;5074555;28;20028;-66
2022/10/18 14:47:00;;;;;;;1082.65;830.90;;;;;;;;;;5081066;28;20028;-66
2022/10/18 14:49:26;;;;;;;;;;;;;;;;;;5094407;28;20020;-66